Time;durP1;ratioP1;P1;durP2;ratioP2;P2;SDS_P1;SDS_P2;PMS_P1;PMS_P2;Temp;Humidity;BMP_temperature;BMP_pressure;BME280_temperature;BME280_humidity;BME280_pressure;Samples;Min_cycle;Max_cycle;Signal;HPM_P1;HPM_P2
2021/09/13 00:00:05;;;;;;;1.00;0.75;;;16.60;99.90;;;;;;4428813;32;20381;-67
2021/09/13 00:02:31;;;;;;;0.50;0.50;;;16.60;99.90;;;;;;4429736;32;20065;-67
2021/09/13 00:04:57;;;;;;;0.30;0.30;;;16.50;99.90;;;;;;4430359;32;20108;-67
2021/09/13 00:07:23;;;;;;;0.68;0.60;;;16.50;99.90;;;;;;4416028;32;20492;-67
2021/09/13 00:09:48;;;;;;;0.52;0.52;;;16.50;99.90;;;;;;4429825;32;20483;-67
2021/09/13 00:12:14;;;;;;;0.37;0.37;;;16.40;99.90;;;;;;4429198;32;20069;-66
2021/09/13 00:14:39;;;;;;;1.10;0.80;;;16.50;99.90;;;;;;4430187;32;20545;-66
2021/09/13 00:17:05;;;;;;;0.57;0.57;;;16.40;99.90;;;;;;4415890;32;20085;-66
2021/09/13 00:19:30;;;;;;;0.30;0.30;;;16.40;99.90;;;;;;4429453;32;20076;-66
2021/09/13 00:21:56;;;;;;;1.60;0.80;;;16.30;99.90;;;;;;4429172;32;20544;-66
2021/09/13 00:24:23;;;;;;;0.68;0.68;;;16.30;99.90;;;;;;4429283;32;20061;-66
2021/09/13 00:26:49;;;;;;;0.40;0.40;;;16.40;99.90;;;;;;4429999;32;20136;-67
2021/09/13 00:29:14;;;;;;;1.27;0.98;;;16.20;99.90;;;;;;4427894;32;20085;-67
2021/09/13 00:31:40;;;;;;;0.95;0.60;;;16.20;99.90;;;;;;4428380;32;20089;-67
2021/09/13 00:34:05;;;;;;;1.25;0.65;;;16.20;99.90;;;;;;4415146;32;20094;-67
2021/09/13 00:36:31;;;;;;;0.50;0.50;;;16.10;99.90;;;;;;4417249;32;20069;-66
2021/09/13 00:38:56;;;;;;;0.60;0.60;;;16.10;99.90;;;;;;4414264;32;20077;-66
2021/09/13 00:41:22;;;;;;;1.35;1.02;;;16.10;99.90;;;;;;4412959;32;20164;-66
2021/09/13 00:43:48;;;;;;;1.00;0.62;;;16.10;99.90;;;;;;4413296;32;20198;-66
2021/09/13 00:46:15;;;;;;;0.35;0.35;;;16.10;99.90;;;;;;4399826;32;20128;-67
2021/09/13 00:48:40;;;;;;;2.00;0.70;;;16.10;99.90;;;;;;4386996;32;20131;-66
2021/09/13 00:51:06;;;;;;;0.80;0.75;;;16.10;99.90;;;;;;4413055;32;20503;-66
2021/09/13 00:53:31;;;;;;;0.70;0.70;;;16.10;99.90;;;;;;4424554;32;20089;-66
2021/09/13 00:55:57;;;;;;;2.70;0.80;;;16.00;99.90;;;;;;4428399;32;20066;-66
2021/09/13 00:58:26;;;;;;;0.60;0.60;;;15.90;99.90;;;;;;4427253;32;20432;-65
2021/09/13 01:00:51;;;;;;;2.42;0.60;;;15.90;99.90;;;;;;4429328;32;20077;-66
2021/09/13 01:03:17;;;;;;;0.55;0.50;;;15.90;99.90;;;;;;4428780;32;20464;-66
2021/09/13 01:05:42;;;;;;;0.57;0.57;;;15.90;99.90;;;;;;4428860;32;20072;-66
2021/09/13 01:08:08;;;;;;;10.75;1.48;;;15.90;99.90;;;;;;4428525;32;20077;-67
2021/09/13 01:10:33;;;;;;;0.65;0.52;;;15.90;99.90;;;;;;4430429;32;20093;-66
2021/09/13 01:12:59;;;;;;;0.40;0.40;;;15.80;99.90;;;;;;4416632;32;20074;-66
2021/09/13 01:15:24;;;;;;;0.50;0.50;;;15.70;99.90;;;;;;4431631;32;20081;-67
2021/09/13 01:17:50;;;;;;;0.50;0.50;;;15.60;99.90;;;;;;4430835;32;20061;-66
2021/09/13 01:20:15;;;;;;;0.52;0.52;;;15.60;99.90;;;;;;4431595;32;20072;-66
2021/09/13 01:22:45;;;;;;;1.52;1.25;;;15.60;99.90;;;;;;4430873;32;20116;-67
2021/09/13 01:25:10;;;;;;;2.30;1.65;;;15.60;99.90;;;;;;4417595;32;20065;-67
2021/09/13 01:27:36;;;;;;;0.40;0.40;;;15.60;99.90;;;;;;4417238;32;20638;-66
2021/09/13 01:30:04;;;;;;;0.55;0.55;;;15.50;99.90;;;;;;4431270;32;20082;-67
2021/09/13 01:32:29;;;;;;;0.43;0.43;;;15.50;99.90;;;;;;4431575;32;20077;-67
2021/09/13 01:34:55;;;;;;;1.55;0.50;;;15.50;99.90;;;;;;4430108;32;20094;-66
2021/09/13 01:37:20;;;;;;;0.95;0.68;;;15.60;99.90;;;;;;4416600;32;20066;-67
2021/09/13 01:39:46;;;;;;;2.15;0.50;;;15.50;99.90;;;;;;4402178;32;20120;-67
2021/09/13 01:42:11;;;;;;;1.02;0.95;;;15.50;99.90;;;;;;4402534;32;20078;-67
2021/09/13 01:44:36;;;;;;;0.52;0.50;;;15.60;99.90;;;;;;4416505;32;20160;-67
2021/09/13 01:47:02;;;;;;;0.70;0.62;;;15.70;99.90;;;;;;4415168;32;20081;-66
2021/09/13 01:49:28;;;;;;;0.62;0.62;;;15.70;99.90;;;;;;4416088;32;20077;-67
2021/09/13 01:51:54;;;;;;;0.52;0.40;;;15.70;99.90;;;;;;4415646;32;20077;-66
2021/09/13 01:54:19;;;;;;;4.05;1.02;;;15.60;99.90;;;;;;4431150;32;20503;-67
2021/09/13 01:56:45;;;;;;;3.20;1.48;;;15.50;99.90;;;;;;4430895;32;20065;-66
2021/09/13 01:59:10;;;;;;;1.05;0.98;;;15.40;99.90;;;;;;4416772;32;20082;-66
2021/09/13 02:01:35;;;;;;;0.70;0.70;;;15.50;99.90;;;;;;4430787;32;20081;-66
2021/09/13 02:04:03;;;;;;;1.10;0.75;;;15.40;99.90;;;;;;4431392;32;20127;-66
2021/09/13 02:06:29;;;;;;;0.50;0.50;;;15.30;99.90;;;;;;4430248;32;20120;-67
2021/09/13 02:08:55;;;;;;;0.80;0.80;;;15.20;99.90;;;;;;4416811;32;20112;-66
2021/09/13 02:11:20;;;;;;;0.50;0.50;;;15.20;99.90;;;;;;4429290;32;20514;-66
2021/09/13 02:13:46;;;;;;;0.40;0.40;;;15.20;99.90;;;;;;4431102;32;20069;-66
2021/09/13 02:16:11;;;;;;;0.62;0.43;;;15.30;99.90;;;;;;4431009;32;20081;-67
2021/09/13 02:18:37;;;;;;;0.70;0.50;;;15.30;99.90;;;;;;4416529;32;20400;-66
2021/09/13 02:21:02;;;;;;;1.48;0.93;;;15.30;99.90;;;;;;4416182;32;20077;-67
2021/09/13 02:23:28;;;;;;;0.65;0.60;;;15.40;99.90;;;;;;4431104;32;20511;-65
2021/09/13 02:25:53;;;;;;;2.75;0.75;;;15.30;99.90;;;;;;4429696;32;20085;-66
2021/09/13 02:28:19;;;;;;;1.90;0.82;;;15.40;99.90;;;;;;4430425;32;20423;-67
2021/09/13 02:30:44;;;;;;;0.90;0.55;;;15.30;99.90;;;;;;4430530;32;20082;-67
2021/09/13 02:33:10;;;;;;;3.85;0.70;;;15.50;99.90;;;;;;4431169;32;20484;-67
2021/09/13 02:35:36;;;;;;;0.68;0.68;;;15.50;99.90;;;;;;4411033;32;20127;-65
2021/09/13 02:38:02;;;;;;;0.70;0.70;;;15.50;99.90;;;;;;4416068;32;20064;-66
2021/09/13 02:40:27;;;;;;;0.52;0.52;;;15.40;99.90;;;;;;4415981;32;20069;-66
2021/09/13 02:42:53;;;;;;;2.83;0.60;;;15.40;99.90;;;;;;4415243;32;20101;-66
2021/09/13 02:45:18;;;;;;;0.77;0.60;;;15.50;99.90;;;;;;4402164;32;20077;-66
2021/09/13 02:47:44;;;;;;;1.52;0.93;;;15.50;99.90;;;;;;4401047;32;20062;-67
2021/09/13 02:50:10;;;;;;;0.88;0.55;;;15.50;99.90;;;;;;4401599;32;20098;-67
2021/09/13 02:52:36;;;;;;;0.60;0.60;;;15.50;99.90;;;;;;4406139;32;20068;-67
2021/09/13 02:55:03;;;;;;;0.93;0.85;;;15.50;99.90;;;;;;4429208;32;20073;-67
2021/09/13 02:57:28;;;;;;;2.47;1.05;;;15.40;99.90;;;;;;4403314;32;20065;-67
2021/09/13 02:59:54;;;;;;;2.65;0.77;;;15.50;99.90;;;;;;4414765;32;20078;-66
2021/09/13 03:02:20;;;;;;;6.00;1.12;;;15.40;99.90;;;;;;4415046;32;20070;-67
2021/09/13 03:04:45;;;;;;;0.80;0.32;;;15.40;99.90;;;;;;4414048;32;20078;-67
2021/09/13 03:07:12;;;;;;;0.60;0.50;;;15.40;99.90;;;;;;4401778;32;20289;-67
2021/09/13 03:09:38;;;;;;;15.73;1.12;;;15.40;99.90;;;;;;4415396;32;20421;-66
2021/09/13 03:12:04;;;;;;;0.47;0.47;;;15.40;99.90;;;;;;4400949;32;20510;-66
2021/09/13 03:14:31;;;;;;;1.23;0.88;;;15.30;99.90;;;;;;4415621;32;20065;-67
2021/09/13 03:16:57;;;;;;;0.75;0.60;;;15.20;99.90;;;;;;4400662;32;20057;-67
2021/09/13 03:19:22;;;;;;;0.57;0.57;;;15.20;99.90;;;;;;4415469;32;20093;-67
2021/09/13 03:21:48;;;;;;;0.62;0.62;;;15.30;99.90;;;;;;4415239;32;20464;-67
2021/09/13 03:24:13;;;;;;;1.00;0.95;;;15.30;99.90;;;;;;4413480;32;20085;-67
2021/09/13 03:26:39;;;;;;;0.57;0.57;;;15.10;99.90;;;;;;4415073;32;20078;-67
2021/09/13 03:29:04;;;;;;;3.05;0.80;;;15.00;99.90;;;;;;4414022;32;20140;-66
2021/09/13 03:31:30;;;;;;;4.90;1.62;;;15.00;99.90;;;;;;4413868;32;20116;-66
2021/09/13 03:33:55;;;;;;;1.15;0.62;;;14.90;99.90;;;;;;4414991;32;20128;-66
2021/09/13 03:36:21;;;;;;;0.60;0.60;;;14.90;99.90;;;;;;4414631;32;20386;-66
2021/09/13 03:38:46;;;;;;;4.70;1.10;;;15.00;99.90;;;;;;4415454;32;20066;-66
2021/09/13 03:41:12;;;;;;;0.88;0.55;;;15.00;99.90;;;;;;4413264;32;20162;-66
2021/09/13 03:43:37;;;;;;;2.08;1.80;;;15.00;99.90;;;;;;4414770;32;20084;-66
2021/09/13 03:46:03;;;;;;;1.95;0.80;;;14.90;99.90;;;;;;4414479;32;20595;-66
2021/09/13 03:48:28;;;;;;;0.50;0.50;;;14.80;99.90;;;;;;4414994;32;20186;-67
2021/09/13 03:50:54;;;;;;;0.77;0.60;;;14.80;99.90;;;;;;4414084;32;20078;-66
2021/09/13 03:53:19;;;;;;;0.43;0.43;;;14.90;99.90;;;;;;4424350;32;20073;-66
2021/09/13 03:55:45;;;;;;;1.73;0.85;;;14.90;99.90;;;;;;4429754;32;20131;-65
2021/09/13 03:58:10;;;;;;;0.40;0.40;;;14.90;99.90;;;;;;4429106;32;20526;-67
2021/09/13 04:00:36;;;;;;;0.88;0.70;;;14.90;99.90;;;;;;4429572;32;20074;-66
2021/09/13 04:03:04;;;;;;;0.57;0.57;;;14.80;99.90;;;;;;4429044;32;20458;-67
2021/09/13 04:05:30;;;;;;;0.60;0.60;;;14.80;99.90;;;;;;4428735;32;20427;-66
2021/09/13 04:08:10;;;;;;;0.30;0.30;;;14.80;99.90;;;;;;4430188;32;20073;-67
2021/09/13 04:13:03;;;;;;;0.88;0.88;;;14.80;99.90;;;;;;4428012;32;20464;-67
2021/09/13 04:15:29;;;;;;;0.47;0.47;;;14.80;99.90;;;;;;4429514;32;20074;-67
2021/09/13 04:17:54;;;;;;;1.98;0.52;;;14.90;99.90;;;;;;4429164;32;20065;-66
2021/09/13 04:20:20;;;;;;;0.47;0.47;;;14.90;99.90;;;;;;4415266;32;20102;-66
2021/09/13 04:22:45;;;;;;;4.80;0.60;;;15.00;99.90;;;;;;4393000;32;20121;-66
2021/09/13 04:25:11;;;;;;;0.50;0.50;;;14.90;99.90;;;;;;4400190;32;20519;-67
2021/09/13 04:27:37;;;;;;;0.73;0.52;;;14.90;99.90;;;;;;4395716;32;20089;-67
2021/09/13 04:30:03;;;;;;;0.45;0.45;;;14.90;99.90;;;;;;4398747;32;20074;-66
2021/09/13 04:32:29;;;;;;;0.40;0.40;;;14.90;99.90;;;;;;4398354;32;20077;-66
2021/09/13 04:34:54;;;;;;;0.40;0.40;;;14.80;99.90;;;;;;4400175;32;20125;-66
2021/09/13 04:37:20;;;;;;;0.50;0.50;;;14.80;99.90;;;;;;4413995;32;20487;-66
2021/09/13 04:39:45;;;;;;;1.70;1.02;;;14.70;99.90;;;;;;4416755;32;20076;-66
2021/09/13 04:42:10;;;;;;;0.55;0.55;;;14.70;99.90;;;;;;4428911;32;20078;-66
2021/09/13 04:44:38;;;;;;;0.40;0.40;;;14.70;99.90;;;;;;4430802;32;20511;-66
2021/09/13 04:47:04;;;;;;;2.78;1.27;;;14.80;99.90;;;;;;4432102;32;20132;-66
2021/09/13 04:49:29;;;;;;;1.70;0.47;;;14.70;99.90;;;;;;4432255;32;20057;-65
2021/09/13 04:51:55;;;;;;;0.90;0.60;;;14.70;99.90;;;;;;4432235;32;20228;-66
2021/09/13 04:54:21;;;;;;;0.65;0.65;;;14.70;99.90;;;;;;4411071;32;20502;-66
2021/09/13 04:56:46;;;;;;;0.70;0.50;;;14.70;99.90;;;;;;4407221;32;20078;-66
2021/09/13 04:59:12;;;;;;;0.50;0.50;;;14.70;99.90;;;;;;4405309;32;20074;-67
2021/09/13 05:01:37;;;;;;;0.60;0.60;;;14.70;99.90;;;;;;4408230;32;20093;-67
2021/09/13 05:04:04;;;;;;;1.08;1.05;;;14.80;99.90;;;;;;4408495;32;20143;-67
2021/09/13 05:06:30;;;;;;;1.05;0.93;;;14.80;99.90;;;;;;4401819;32;20180;-66
2021/09/13 05:08:55;;;;;;;2.17;0.80;;;14.90;99.90;;;;;;4407686;32;20096;-66
2021/09/13 05:11:21;;;;;;;0.40;0.40;;;14.80;99.90;;;;;;4412099;32;20093;-67
2021/09/13 05:13:47;;;;;;;0.77;0.52;;;14.80;99.90;;;;;;4390324;32;20393;-67
2021/09/13 05:16:12;;;;;;;0.60;0.60;;;14.90;99.90;;;;;;4396733;32;20176;-66
2021/09/13 05:18:38;;;;;;;0.55;0.55;;;14.80;99.90;;;;;;4397620;32;20062;-66
2021/09/13 05:21:04;;;;;;;0.50;0.50;;;14.80;99.90;;;;;;4416004;32;20070;-66
2021/09/13 05:23:29;;;;;;;0.90;0.85;;;14.90;99.90;;;;;;4415131;32;20065;-67
2021/09/13 05:25:55;;;;;;;1.00;0.70;;;14.90;99.90;;;;;;4409969;32;20176;-66
2021/09/13 05:28:21;;;;;;;0.40;0.40;;;14.90;99.90;;;;;;4397785;32;20091;-66
2021/09/13 05:30:48;;;;;;;0.50;0.50;;;15.00;99.90;;;;;;4381445;32;20081;-66
2021/09/13 05:33:16;;;;;;;0.50;0.50;;;15.00;99.90;;;;;;4393074;32;20094;-66
2021/09/13 05:35:42;;;;;;;0.40;0.40;;;15.00;99.90;;;;;;4408442;32;20098;-66
2021/09/13 05:38:09;;;;;;;0.40;0.40;;;14.90;99.90;;;;;;4408642;32;20106;-66
2021/09/13 05:40:35;;;;;;;7.60;0.98;;;14.90;99.90;;;;;;4410347;32;20370;-66
2021/09/13 05:43:04;;;;;;;0.65;0.43;;;15.00;99.90;;;;;;4406333;32;20065;-67
2021/09/13 05:45:30;;;;;;;0.57;0.57;;;15.00;99.90;;;;;;4408649;32;20089;-67
2021/09/13 05:47:56;;;;;;;3.03;0.98;;;15.10;99.90;;;;;;4392517;32;20082;-66
2021/09/13 05:50:21;;;;;;;4.85;2.05;;;15.20;99.90;;;;;;4409021;32;20405;-67
2021/09/13 05:52:47;;;;;;;1.05;0.80;;;15.20;99.90;;;;;;4402173;32;20077;-66
2021/09/13 05:55:12;;;;;;;0.37;0.37;;;15.30;99.90;;;;;;4404734;32;20089;-67
2021/09/13 05:57:38;;;;;;;11.88;2.37;;;15.40;99.90;;;;;;4406599;32;20070;-67
2021/09/13 06:00:05;;;;;;;2.42;0.82;;;15.40;99.90;;;;;;4400680;32;20090;-67
2021/09/13 06:02:31;;;;;;;0.50;0.50;;;15.40;99.90;;;;;;4389658;32;20173;-66
2021/09/13 06:04:56;;;;;;;1.48;0.85;;;15.40;99.90;;;;;;4406912;32;20168;-66
2021/09/13 06:07:22;;;;;;;0.60;0.60;;;15.50;99.90;;;;;;4408397;32;20128;-66
2021/09/13 06:09:48;;;;;;;1.42;0.85;;;15.40;99.90;;;;;;4407256;32;20109;-67
2021/09/13 06:12:14;;;;;;;0.47;0.47;;;15.40;99.90;;;;;;4404809;32;20129;-67
2021/09/13 06:14:41;;;;;;;0.60;0.60;;;15.50;99.90;;;;;;4407709;32;20065;-67
2021/09/13 06:17:06;;;;;;;0.45;0.45;;;15.50;99.90;;;;;;4405075;32;20086;-66
2021/09/13 06:19:32;;;;;;;0.52;0.52;;;15.50;99.90;;;;;;4400513;32;20424;-66
2021/09/13 06:21:57;;;;;;;2.08;1.00;;;15.60;99.90;;;;;;4394372;32;20177;-66
2021/09/13 06:24:23;;;;;;;5.12;1.25;;;15.60;99.90;;;;;;4401107;32;133527;-67
2021/09/13 06:26:48;;;;;;;0.47;0.47;;;15.70;99.90;;;;;;4406551;32;20082;-67
2021/09/13 06:29:15;;;;;;;0.45;0.43;;;15.70;99.90;;;;;;4404220;32;20090;-67
2021/09/13 06:31:40;;;;;;;0.55;0.55;;;15.70;99.90;;;;;;4404623;32;20118;-67
2021/09/13 06:34:07;;;;;;;1.08;0.88;;;15.70;99.90;;;;;;4404294;32;20066;-66
2021/09/13 06:36:33;;;;;;;1.33;0.47;;;15.70;99.90;;;;;;4404080;32;21809;-66
2021/09/13 06:38:58;;;;;;;1.33;0.57;;;15.70;99.90;;;;;;4395338;32;20081;-66
2021/09/13 06:41:24;;;;;;;0.50;0.50;;;15.80;99.90;;;;;;4404927;32;20150;-66
2021/09/13 06:43:51;;;;;;;0.40;0.40;;;15.90;99.90;;;;;;4407028;32;20442;-66
2021/09/13 06:46:33;;;;;;;1.12;0.80;;;16.00;99.90;;;;;;4403958;32;20153;-66
2021/09/13 06:48:58;;;;;;;1.80;0.68;;;16.00;99.90;;;;;;4407933;32;20474;-65
2021/09/13 06:51:24;;;;;;;0.60;0.60;;;16.10;99.90;;;;;;4407180;32;20128;-67
2021/09/13 06:53:49;;;;;;;2.17;0.70;;;16.10;99.90;;;;;;4407506;32;20526;-65
2021/09/13 06:56:15;;;;;;;0.35;0.35;;;16.10;99.90;;;;;;4402877;32;20077;-65
2021/09/13 06:58:41;;;;;;;3.20;1.17;;;16.20;99.90;;;;;;4404334;32;20062;-66
2021/09/13 07:01:06;;;;;;;0.60;0.60;;;16.20;99.90;;;;;;4404438;32;20084;-66
2021/09/13 07:03:31;;;;;;;0.40;0.40;;;16.20;99.90;;;;;;4404758;32;20527;-66
2021/09/13 07:05:57;;;;;;;1.33;1.15;;;16.30;99.90;;;;;;4406034;32;20078;-65
2021/09/13 07:08:23;;;;;;;0.35;0.35;;;16.40;99.90;;;;;;4406153;32;20093;-65
2021/09/13 07:10:48;;;;;;;2.20;1.10;;;16.40;99.90;;;;;;4399685;32;20102;-66
2021/09/13 07:13:14;;;;;;;0.30;0.30;;;16.50;99.90;;;;;;4401349;32;20456;-66
2021/09/13 07:15:39;;;;;;;1.08;0.82;;;16.50;99.90;;;;;;4403477;32;20089;-66
2021/09/13 07:18:05;;;;;;;15.48;0.77;;;16.50;99.90;;;;;;4405697;32;20085;-66
2021/09/13 07:20:31;;;;;;;0.70;0.70;;;16.60;99.90;;;;;;4402619;32;20078;-66
2021/09/13 07:22:56;;;;;;;0.52;0.52;;;16.60;99.90;;;;;;4390136;32;20097;-66
2021/09/13 07:25:22;;;;;;;0.50;0.50;;;16.60;99.90;;;;;;4406926;32;20550;-66
2021/09/13 07:27:47;;;;;;;0.40;0.40;;;16.70;99.90;;;;;;4408003;32;20077;-65
2021/09/13 07:30:13;;;;;;;0.40;0.40;;;16.70;99.90;;;;;;4404349;32;20495;-65
2021/09/13 07:32:39;;;;;;;0.30;0.30;;;16.80;99.90;;;;;;4402342;32;20077;-65
2021/09/13 07:35:07;;;;;;;1.65;1.05;;;16.80;99.90;;;;;;4402557;32;20185;-65
2021/09/13 07:37:33;;;;;;;0.20;0.20;;;16.80;99.90;;;;;;4399371;32;20097;-65
2021/09/13 07:39:59;;;;;;;0.65;0.60;;;16.90;99.90;;;;;;4390928;32;20174;-65
2021/09/13 07:42:24;;;;;;;0.40;0.40;;;16.90;99.90;;;;;;4404656;32;20133;-65
2021/09/13 07:44:51;;;;;;;0.55;0.52;;;17.00;99.90;;;;;;4392548;32;20075;-65
2021/09/13 07:47:18;;;;;;;0.47;0.47;;;17.00;99.90;;;;;;4403511;32;20145;-65
2021/09/13 07:49:43;;;;;;;1.55;0.55;;;17.10;99.90;;;;;;4394702;32;20134;-65
2021/09/13 07:52:09;;;;;;;0.57;0.55;;;17.10;99.90;;;;;;4383978;32;20405;-65
2021/09/13 07:54:35;;;;;;;0.43;0.43;;;17.20;99.90;;;;;;4389628;32;20093;-65
2021/09/13 07:57:00;;;;;;;0.90;0.77;;;17.30;99.90;;;;;;4400451;32;20074;-65
2021/09/13 07:59:25;;;;;;;0.30;0.30;;;17.30;99.90;;;;;;4406645;32;20583;-65
2021/09/13 08:01:51;;;;;;;0.40;0.40;;;17.40;99.90;;;;;;4398700;32;20082;-65
2021/09/13 08:04:16;;;;;;;0.40;0.40;;;17.40;99.90;;;;;;4385954;32;20101;-65
2021/09/13 08:06:42;;;;;;;0.60;0.60;;;17.50;99.90;;;;;;4400719;32;20074;-65
2021/09/13 08:09:07;;;;;;;0.30;0.30;;;17.50;99.90;;;;;;4402406;32;20285;-65
2021/09/13 08:11:34;;;;;;;0.45;0.45;;;17.60;99.90;;;;;;4400601;32;20605;-65
2021/09/13 08:13:59;;;;;;;0.30;0.30;;;17.60;99.90;;;;;;4402322;32;20577;-65
2021/09/13 08:16:25;;;;;;;0.65;0.40;;;17.70;99.90;;;;;;4406608;32;20062;-65
2021/09/13 08:18:51;;;;;;;0.30;0.30;;;17.70;99.90;;;;;;4399120;32;20073;-65
2021/09/13 08:21:19;;;;;;;0.73;0.57;;;17.80;99.90;;;;;;4387163;32;20589;-65
2021/09/13 08:23:45;;;;;;;0.43;0.43;;;17.80;99.90;;;;;;4398402;32;20090;-65
2021/09/13 08:26:11;;;;;;;0.40;0.40;;;18.00;99.90;;;;;;4402777;32;20065;-65
2021/09/13 08:28:37;;;;;;;0.65;0.47;;;18.10;99.90;;;;;;4392061;32;20096;-65
2021/09/13 08:31:03;;;;;;;0.40;0.40;;;18.20;99.90;;;;;;4398968;32;20099;-65
2021/09/13 08:33:29;;;;;;;0.43;0.43;;;18.20;99.90;;;;;;4388995;32;20118;-65
2021/09/13 08:35:54;;;;;;;0.45;0.45;;;18.20;99.90;;;;;;4395664;32;20077;-65
2021/09/13 08:38:21;;;;;;;0.47;0.47;;;18.30;99.90;;;;;;4402006;32;20581;-65
2021/09/13 08:40:46;;;;;;;0.30;0.30;;;18.30;99.90;;;;;;4399518;32;20082;-65
2021/09/13 08:43:13;;;;;;;0.20;0.20;;;18.30;99.90;;;;;;4398206;32;20074;-65
2021/09/13 08:45:57;;;;;;;0.20;0.20;;;18.30;99.90;;;;;;4398324;32;20210;-65
2021/09/13 08:48:28;;;;;;;0.30;0.30;;;18.30;99.90;;;;;;4399883;32;20069;-65
2021/09/13 08:51:54;;;;;;;0.32;0.32;;;18.20;99.90;;;;;;4386385;32;20061;-65
2021/09/13 08:53:45;;;;;;;0.30;0.30;;;18.30;99.90;;;;;;4385937;32;20524;-66
2021/09/13 08:56:15;;;;;;;0.40;0.40;;;18.30;99.90;;;;;;4400760;32;20143;-65
2021/09/13 08:58:42;;;;;;;0.32;0.32;;;18.30;99.90;;;;;;4400427;32;20146;-66
2021/09/13 09:01:09;;;;;;;1.27;0.70;;;18.40;99.90;;;;;;4397250;32;20116;-66
2021/09/13 09:03:36;;;;;;;0.45;0.45;;;18.50;99.90;;;;;;4405004;32;20074;-66
2021/09/13 09:06:02;;;;;;;2.53;1.37;;;18.40;99.90;;;;;;4388358;32;20610;-66
2021/09/13 09:08:31;;;;;;;0.30;0.30;;;18.50;99.90;;;;;;4387670;32;20080;-66
2021/09/13 09:11:01;;;;;;;0.20;0.20;;;18.70;99.90;;;;;;4389367;32;20461;-65
2021/09/13 09:13:37;;;;;;;0.32;0.32;;;18.80;99.90;;;;;;4399720;32;20098;-66
2021/09/13 09:16:04;;;;;;;0.30;0.30;;;18.90;99.90;;;;;;4401874;32;20098;-66
2021/09/13 09:18:39;;;;;;;0.30;0.30;;;18.90;99.90;;;;;;4394066;32;20394;-65
2021/09/13 09:21:06;;;;;;;0.40;0.40;;;18.90;99.90;;;;;;4402500;32;20201;-65
2021/09/13 09:23:34;;;;;;;2.47;0.52;;;19.10;99.90;;;;;;4405131;32;20140;-66
2021/09/13 09:26:11;;;;;;;0.30;0.30;;;19.00;99.90;;;;;;4391123;32;20077;-65
2021/09/13 09:28:37;;;;;;;17.92;1.15;;;19.10;99.90;;;;;;4395231;32;20681;-65
2021/09/13 09:31:03;;;;;;;0.22;0.22;;;19.10;99.90;;;;;;4395033;32;20102;-66
2021/09/13 09:33:29;;;;;;;0.30;0.30;;;19.10;99.90;;;;;;4390919;32;20285;-66
2021/09/13 09:35:56;;;;;;;1.42;0.50;;;19.10;99.90;;;;;;4388898;32;20097;-66
2021/09/13 09:38:39;;;;;;;20.27;0.40;;;19.30;99.90;;;;;;4396783;32;20234;-66
2021/09/13 09:41:14;;;;;;;16.35;1.95;;;19.50;99.90;;;;;;4388996;32;20061;-66
2021/09/13 09:44:01;;;;;;;0.20;0.20;;;19.60;99.90;;;;;;4403124;32;20086;-67
2021/09/13 09:46:40;;;;;;;1.60;0.32;;;19.70;99.90;;;;;;4384391;32;20225;-67
2021/09/13 09:49:11;;;;;;;0.30;0.30;;;19.90;99.90;;;;;;4398300;32;20098;-66
2021/09/13 09:51:39;;;;;;;0.30;0.30;;;20.10;99.90;;;;;;4398944;32;20688;-67
2021/09/13 09:54:14;;;;;;;0.45;0.35;;;20.20;99.90;;;;;;4394951;32;20070;-67
2021/09/13 09:56:42;;;;;;;0.20;0.20;;;20.40;99.90;;;;;;4400678;32;20069;-67
2021/09/13 09:59:10;;;;;;;0.40;0.40;;;20.40;99.90;;;;;;4388147;32;20634;-67
2021/09/13 10:01:46;;;;;;;0.40;0.40;;;20.20;99.90;;;;;;4398533;32;20493;-67
2021/09/13 10:04:22;;;;;;;0.40;0.40;;;20.00;99.90;;;;;;4401748;32;20089;-66
2021/09/13 10:06:55;;;;;;;1.65;1.00;;;19.60;99.90;;;;;;4400860;32;20094;-67
2021/09/13 10:09:22;;;;;;;0.28;0.28;;;19.50;99.90;;;;;;4402052;32;20570;-66
2021/09/13 10:11:51;;;;;;;0.20;0.20;;;19.40;99.90;;;;;;4404249;32;20528;-66
2021/09/13 10:14:20;;;;;;;0.37;0.37;;;19.50;99.90;;;;;;4400813;32;20289;-66
2021/09/13 10:16:46;;;;;;;0.32;0.32;;;19.70;99.90;;;;;;4394001;32;20535;-66
2021/09/13 10:19:13;;;;;;;0.30;0.30;;;19.70;99.90;;;;;;4381229;32;20917;-66
2021/09/13 10:21:39;;;;;;;0.40;0.40;;;19.80;99.90;;;;;;4383204;32;20506;-68
2021/09/13 10:24:11;;;;;;;0.20;0.20;;;19.90;99.90;;;;;;4384572;32;20074;-67
2021/09/13 10:26:40;;;;;;;0.30;0.30;;;19.90;99.90;;;;;;4406558;32;20085;-66
2021/09/13 10:29:08;;;;;;;1.75;0.80;;;19.90;99.90;;;;;;4404084;32;20610;-66
2021/09/13 10:31:51;;;;;;;0.30;0.30;;;20.00;99.90;;;;;;4400023;32;21945;-66
2021/09/13 10:34:31;;;;;;;0.32;0.32;;;19.90;99.90;;;;;;4397320;32;20081;-65
2021/09/13 10:37:06;;;;;;;0.20;0.20;;;19.90;99.90;;;;;;4399992;32;20157;-65
2021/09/13 10:40:08;;;;;;;0.32;0.32;;;19.80;99.90;;;;;;4403094;32;20498;-65
2021/09/13 10:42:36;;;;;;;0.85;0.50;;;19.60;99.90;;;;;;4389857;32;20093;-64
2021/09/13 10:45:05;;;;;;;0.37;0.37;;;19.60;99.90;;;;;;4406276;32;20061;-65
2021/09/13 10:47:32;;;;;;;0.25;0.25;;;19.50;99.90;;;;;;4389032;32;20182;-65
2021/09/13 10:50:20;;;;;;;0.30;0.30;;;19.40;99.90;;;;;;4401064;32;20120;-66
2021/09/13 10:52:48;;;;;;;0.30;0.30;;;19.50;99.90;;;;;;4386170;32;20105;-66
2021/09/13 10:55:16;;;;;;;0.30;0.30;;;19.50;99.90;;;;;;4397389;32;20171;-66
2021/09/13 10:58:03;;;;;;;0.10;0.10;;;19.50;99.90;;;;;;4400144;32;20091;-66
2021/09/13 11:00:48;;;;;;;0.45;0.40;;;19.60;99.90;;;;;;4389498;32;20073;-65
2021/09/13 11:03:32;;;;;;;0.30;0.30;;;19.70;99.90;;;;;;4406739;32;20073;-65
2021/09/13 11:06:16;;;;;;;0.20;0.20;;;19.70;99.90;;;;;;4383070;32;20520;-66
2021/09/13 11:08:44;;;;;;;0.20;0.20;;;19.70;99.90;;;;;;4407614;32;20505;-66
2021/09/13 11:11:13;;;;;;;0.20;0.20;;;19.70;99.90;;;;;;4405611;32;20326;-66
2021/09/13 11:13:39;;;;;;;0.20;0.20;;;19.60;99.90;;;;;;4386928;32;20101;-65
2021/09/13 11:16:05;;;;;;;0.10;0.10;;;19.50;99.90;;;;;;4389378;32;20602;-66
2021/09/13 11:18:33;;;;;;;1.00;0.30;;;19.40;99.90;;;;;;4378478;32;20214;-66
2021/09/13 11:21:27;;;;;;;1.17;0.75;;;19.20;99.90;;;;;;4390141;32;20097;-66
2021/09/13 11:24:03;;;;;;;0.17;0.17;;;19.10;99.90;;;;;;4392275;32;20085;-66
2021/09/13 11:26:35;;;;;;;1.10;0.57;;;19.00;99.90;;;;;;4400518;32;20140;-66
2021/09/13 11:29:07;;;;;;;0.22;0.22;;;19.00;99.90;;;;;;4400671;32;20515;-66
2021/09/13 11:31:40;;;;;;;0.85;0.52;;;18.90;99.90;;;;;;4378631;32;20208;-67
2021/09/13 11:34:21;;;;;;;0.20;0.20;;;19.00;99.90;;;;;;4395753;32;20097;-66
2021/09/13 11:37:17;;;;;;;0.32;0.32;;;18.90;99.90;;;;;;4406386;32;20126;-67
2021/09/13 11:39:49;;;;;;;0.70;0.52;;;18.90;99.90;;;;;;4390521;32;20682;-66
2021/09/13 11:42:19;;;;;;;0.40;0.40;;;19.00;99.90;;;;;;4399444;32;20077;-67
2021/09/13 11:44:48;;;;;;;0.20;0.20;;;19.00;99.90;;;;;;4393667;32;20235;-67
2021/09/13 11:47:16;;;;;;;0.22;0.22;;;19.00;99.90;;;;;;4389818;32;20453;-68
2021/09/13 11:49:45;;;;;;;0.20;0.20;;;19.10;99.90;;;;;;4382723;32;20408;-68
2021/09/13 11:52:22;;;;;;;0.40;0.40;;;19.30;99.90;;;;;;4401224;32;20630;-68
2021/09/13 11:54:52;;;;;;;0.25;0.25;;;19.50;99.90;;;;;;4399449;32;20090;-68
2021/09/13 11:57:27;;;;;;;0.20;0.20;;;19.50;99.90;;;;;;4410380;32;20417;-68
2021/09/13 11:59:57;;;;;;;7.22;0.25;;;19.70;99.90;;;;;;4406044;32;20065;-67
2021/09/13 12:02:24;;;;;;;0.30;0.30;;;20.00;99.90;;;;;;4402891;32;20086;-68
2021/09/13 12:04:51;;;;;;;0.40;0.40;;;20.10;99.90;;;;;;4404189;32;20081;-68
2021/09/13 12:07:17;;;;;;;0.20;0.20;;;20.10;99.90;;;;;;4405651;32;20653;-68
2021/09/13 12:09:46;;;;;;;0.20;0.20;;;20.30;99.90;;;;;;4399994;32;20053;-68
2021/09/13 12:12:13;;;;;;;12.70;1.12;;;20.50;99.90;;;;;;4405269;32;20487;-68
2021/09/13 12:14:40;;;;;;;13.68;0.85;;;20.50;99.90;;;;;;4401316;32;20066;-68
2021/09/13 12:17:09;;;;;;;0.30;0.30;;;20.40;99.90;;;;;;4395482;32;20085;-68
2021/09/13 12:19:37;;;;;;;0.13;0.13;;;20.40;99.90;;;;;;4400899;32;20094;-68
2021/09/13 12:22:05;;;;;;;0.20;0.20;;;20.60;99.90;;;;;;4401561;32;20081;-67
2021/09/13 12:24:32;;;;;;;0.20;0.20;;;20.60;99.90;;;;;;4406709;32;20496;-68
2021/09/13 12:27:12;;;;;;;0.10;0.10;;;20.50;99.90;;;;;;4404260;32;20078;-68
2021/09/13 12:30:00;;;;;;;0.30;0.30;;;20.60;99.90;;;;;;4403025;32;20374;-68
2021/09/13 12:32:28;;;;;;;0.17;0.17;;;20.50;99.90;;;;;;4391336;32;20098;-68
2021/09/13 12:35:02;;;;;;;0.20;0.20;;;20.40;99.90;;;;;;4407493;32;20069;-68
2021/09/13 12:37:37;;;;;;;0.40;0.40;;;20.40;99.90;;;;;;4385909;32;20082;-68
2021/09/13 12:40:06;;;;;;;0.20;0.20;;;20.40;99.90;;;;;;4402952;32;20073;-68
2021/09/13 12:42:32;;;;;;;0.10;0.10;;;20.50;99.90;;;;;;4384639;32;20124;-68
2021/09/13 12:45:00;;;;;;;0.57;0.30;;;20.60;99.90;;;;;;4388792;32;20131;-68
2021/09/13 12:47:25;;;;;;;0.30;0.30;;;20.70;99.90;;;;;;4401332;32;20074;-68
2021/09/13 12:49:52;;;;;;;0.20;0.20;;;20.70;99.90;;;;;;4400763;32;20148;-68